createdAt,value
2019-04-11T00:01:05.975Z,15.25
2019-04-11T00:03:35.670Z,15.30
2019-04-11T00:06:05.449Z,15.31
2019-04-11T00:08:35.802Z,15.44
2019-04-11T00:11:06.147Z,15.31
2019-04-11T00:13:36.477Z,15.10
2019-04-11T00:16:08.821Z,15.19
2019-04-11T00:18:38.795Z,15.12
2019-04-11T00:21:08.711Z,14.98
2019-04-11T00:23:38.624Z,15.07
2019-04-11T00:26:08.430Z,14.96
2019-04-11T00:28:37.875Z,14.78
2019-04-11T00:31:08.371Z,14.73
2019-04-11T00:33:38.220Z,14.67
2019-04-11T00:36:08.340Z,14.69
2019-04-11T00:38:38.233Z,14.66
2019-04-11T00:41:08.000Z,14.51
2019-04-11T00:43:41.958Z,14.42
2019-04-11T00:46:09.854Z,14.46
2019-04-11T00:48:39.402Z,14.36
2019-04-11T00:51:09.810Z,14.34
2019-04-11T00:53:40.272Z,14.43
2019-04-11T00:56:10.855Z,14.46
2019-04-11T00:58:41.542Z,14.41
2019-04-11T01:01:11.418Z,14.48
2019-04-11T01:03:40.871Z,14.52
2019-04-11T01:06:10.295Z,14.49
2019-04-11T01:08:39.975Z,14.40
2019-04-11T01:11:12.405Z,14.56
2019-04-11T01:13:50.323Z,14.39
2019-04-11T01:16:21.015Z,14.55
2019-04-11T01:18:50.420Z,14.67
2019-04-11T01:21:20.102Z,14.62
2019-04-11T01:23:49.438Z,14.72
2019-04-11T01:26:19.154Z,14.68
2019-04-11T01:28:49.068Z,14.74
2019-04-11T01:31:20.494Z,14.76
2019-04-11T01:33:49.931Z,14.61
2019-04-11T01:36:19.291Z,14.59
2019-04-11T01:38:52.633Z,14.86
2019-04-11T01:41:22.485Z,14.86
2019-04-11T01:43:56.411Z,14.78
2019-04-11T01:46:23.018Z,14.83
2019-04-11T01:51:33.884Z,14.70
2019-04-11T01:54:03.688Z,14.72
2019-04-11T01:56:33.610Z,14.81
2019-04-11T01:59:03.213Z,14.79
2019-04-11T02:01:56.935Z,14.73
2019-04-11T02:04:38.470Z,14.71
2019-04-11T02:07:10.150Z,14.78
2019-04-11T02:09:40.148Z,14.78
2019-04-11T02:12:09.994Z,14.70
2019-04-11T02:14:39.807Z,14.72
2019-04-11T02:17:10.445Z,14.70
2019-04-11T02:19:40.523Z,14.78
2019-04-11T02:22:28.577Z,14.69
2019-04-11T02:25:12.271Z,14.78
2019-04-11T02:27:42.300Z,14.83
2019-04-11T02:30:14.388Z,14.71
2019-04-11T02:32:45.490Z,14.61
2019-04-11T02:35:15.502Z,14.37
2019-04-11T02:37:47.586Z,14.52
2019-04-11T02:40:17.684Z,14.47
2019-04-11T02:42:47.676Z,14.56
2019-04-11T02:45:31.108Z,14.76
2019-04-11T02:47:51.270Z,14.62
2019-04-11T02:50:22.006Z,14.50
2019-04-11T02:52:52.046Z,14.48
2019-04-11T02:55:22.903Z,14.47
2019-04-11T02:57:54.204Z,14.31
2019-04-11T03:00:24.474Z,14.27
2019-04-11T03:02:56.925Z,14.31
2019-04-11T03:05:26.954Z,14.28
2019-04-11T03:07:58.268Z,14.28
2019-04-11T03:10:28.923Z,14.08
2019-04-11T03:12:59.040Z,13.98
2019-04-11T03:15:43.000Z,13.85
2019-04-11T03:18:04.180Z,14.05
2019-04-11T03:20:39.213Z,14.07
2019-04-11T03:23:08.567Z,14.02
2019-04-11T03:25:38.510Z,13.90
2019-04-11T03:28:14.058Z,14.15
2019-04-11T03:31:01.690Z,14.22
2019-04-11T03:38:40.017Z,14.35
2019-04-11T03:41:05.907Z,14.38
2019-04-11T03:43:30.165Z,14.01
2019-04-11T03:46:10.910Z,14.08
2019-04-11T03:48:33.374Z,14.01
2019-04-11T03:50:54.246Z,14.06
2019-04-11T03:53:25.333Z,14.18
2019-04-11T03:55:55.885Z,13.92
2019-04-11T03:58:25.925Z,13.81
2019-04-11T04:01:00.692Z,13.64
2019-04-11T04:03:28.973Z,13.68
2019-04-11T04:06:00.014Z,14.12
2019-04-11T04:08:31.455Z,13.99
2019-04-11T04:11:16.822Z,14.00
2019-04-11T04:13:54.473Z,14.05
2019-04-11T04:16:59.826Z,14.12
2019-04-11T04:19:37.676Z,14.12
2019-04-11T04:22:15.481Z,13.96
2019-04-11T04:24:46.799Z,13.83
2019-04-11T04:27:17.281Z,13.77
2019-04-11T04:29:51.247Z,14.15
2019-04-11T04:32:19.266Z,13.88
2019-04-11T04:34:50.833Z,13.87
2019-04-11T04:37:22.409Z,13.89
2019-04-11T04:40:13.576Z,13.80
2019-04-11T04:42:31.599Z,13.81
2019-04-11T04:44:55.956Z,14.01
2019-04-11T04:47:37.018Z,14.05
2019-04-11T04:49:57.281Z,13.89
2019-04-11T04:52:29.669Z,13.96
2019-04-11T04:55:01.522Z,14.07
2019-04-11T04:57:31.762Z,13.85
2019-04-11T05:00:03.278Z,13.92
2019-04-11T05:02:35.452Z,13.90
2019-04-11T05:05:06.102Z,13.73
2019-04-11T05:07:40.224Z,14.25
2019-04-11T05:10:08.910Z,14.30
2019-04-11T05:12:38.921Z,14.11
2019-04-11T05:15:10.044Z,14.19
2019-04-11T05:17:40.707Z,14.07
2019-04-11T05:20:11.981Z,14.21
2019-04-11T05:22:41.940Z,14.25
2019-04-11T05:25:12.617Z,14.26
2019-04-11T05:27:42.524Z,14.04
2019-04-11T05:30:12.197Z,13.74
2019-04-11T05:32:41.907Z,13.67
2019-04-11T05:35:11.603Z,13.88
2019-04-11T05:37:41.257Z,13.76
2019-04-11T05:40:11.249Z,13.88
2019-04-11T05:42:41.716Z,13.62
2019-04-11T05:45:15.685Z,13.49
2019-04-11T05:47:43.493Z,14.12
2019-04-11T05:50:20.073Z,13.96
2019-04-11T05:52:50.402Z,13.98
2019-04-11T05:55:20.220Z,13.88
2019-04-11T05:57:50.218Z,13.70
2019-04-11T06:00:41.733Z,13.70
2019-04-11T06:03:11.755Z,13.58
2019-04-11T06:06:06.765Z,13.17
2019-04-11T06:08:36.327Z,13.42
2019-04-11T06:11:31.121Z,13.43
2019-04-11T06:14:26.996Z,13.22
2019-04-11T06:17:00.872Z,13.15
2019-04-11T06:20:06.053Z,13.48
2019-04-11T06:22:38.613Z,13.13
2019-04-11T06:25:25.832Z,13.19
2019-04-11T06:28:04.083Z,13.18
2019-04-11T06:30:50.716Z,13.28
2019-04-11T06:33:28.785Z,13.44
2019-04-11T06:36:23.588Z,13.74
2019-04-11T06:39:13.870Z,13.66
2019-04-11T06:42:01.668Z,13.67
2019-04-11T06:44:50.125Z,13.59
2019-04-11T06:47:37.848Z,13.77
2019-04-11T06:50:25.105Z,13.73
2019-04-11T06:52:54.737Z,13.57
2019-04-11T06:55:42.681Z,13.56
2019-04-11T06:58:16.441Z,13.75
2019-04-11T07:00:50.007Z,13.88
2019-04-11T07:03:27.470Z,13.91
2019-04-11T07:05:57.257Z,13.92
2019-04-11T07:08:30.719Z,13.83
2019-04-11T07:11:03.453Z,13.92
2019-04-11T07:13:47.702Z,13.90
2019-04-11T07:16:18.519Z,14.01
2019-04-11T07:18:59.120Z,13.92
2019-04-11T07:21:35.325Z,13.92
2019-04-11T07:24:24.690Z,13.88
2019-04-11T07:27:03.154Z,13.72
2019-04-11T07:30:00.758Z,13.65
2019-04-11T07:32:30.795Z,13.63
2019-04-11T07:35:25.215Z,13.64
2019-04-11T07:37:58.099Z,13.69
2019-04-11T07:40:56.172Z,13.73
2019-04-11T07:43:29.203Z,13.84
2019-04-11T07:46:25.159Z,13.77
2019-04-11T07:48:59.437Z,13.66
2019-04-11T07:51:34.322Z,13.77
2019-04-11T07:54:06.621Z,13.86
2019-04-11T07:57:08.362Z,14.07
2019-04-11T08:00:00.270Z,13.91
2019-04-11T08:02:48.182Z,14.04
2019-04-11T08:05:34.737Z,14.20
2019-04-11T08:08:23.251Z,14.20
2019-04-11T08:11:17.829Z,14.19
2019-04-11T08:14:04.805Z,14.15
2019-04-11T08:17:38.986Z,14.07
2019-04-11T08:20:55.348Z,14.07
2019-04-11T08:23:25.585Z,14.28
2019-04-11T08:26:28.321Z,14.19
2019-04-11T08:29:05.309Z,14.20
2019-04-11T08:31:48.775Z,14.55
2019-04-11T08:34:20.292Z,14.62
2019-04-11T08:37:09.332Z,14.62
2019-04-11T08:39:42.790Z,14.59
2019-04-11T08:42:31.697Z,14.58
2019-04-11T08:45:01.476Z,14.62
2019-04-11T08:47:46.865Z,14.61
2019-04-11T08:50:12.313Z,14.57
2019-04-11T08:53:00.880Z,14.61
2019-04-11T08:55:53.619Z,14.71
2019-04-11T08:58:40.691Z,14.75
2019-04-11T09:01:11.993Z,14.77
2019-04-11T09:04:07.407Z,14.88
2019-04-11T09:06:37.172Z,14.83
2019-04-11T09:09:25.786Z,14.78
2019-04-11T09:12:02.494Z,14.85
2019-04-11T09:14:50.583Z,14.85
2019-04-11T09:17:36.660Z,14.90
2019-04-11T09:20:38.519Z,14.97
2019-04-11T09:23:11.245Z,15.03
2019-04-11T09:25:59.446Z,15.12
2019-04-11T09:28:44.045Z,15.18
2019-04-11T09:31:42.114Z,15.20
2019-04-11T09:34:37.735Z,15.23
2019-04-11T09:37:36.020Z,15.25
2019-04-11T09:40:26.488Z,15.28
2019-04-11T09:43:14.212Z,15.33
2019-04-11T09:46:01.961Z,15.38
2019-04-11T09:48:53.919Z,15.37
2019-04-11T09:51:49.911Z,15.39
2019-04-11T09:54:32.444Z,15.42
2019-04-11T09:57:24.873Z,15.29
2019-04-11T10:00:26.586Z,15.16
2019-04-11T10:03:15.474Z,15.20
2019-04-11T10:06:03.034Z,15.29
2019-04-11T10:08:51.133Z,15.28
2019-04-11T10:11:42.986Z,15.27
2019-04-11T10:14:15.530Z,15.23
2019-04-11T10:17:02.969Z,15.27
2019-04-11T10:19:44.356Z,15.28
2019-04-11T10:22:48.399Z,15.31
2019-04-11T10:25:30.708Z,15.32
2019-04-11T10:28:30.407Z,15.37
2019-04-11T10:31:29.037Z,15.40
2019-04-11T10:34:07.430Z,15.49
2019-04-11T10:36:47.392Z,15.53
2019-04-11T10:39:36.042Z,15.56
2019-04-11T10:42:08.668Z,15.62
2019-04-11T10:45:04.528Z,15.70
2019-04-11T10:47:34.645Z,15.74
2019-04-11T10:50:19.469Z,15.81
2019-04-11T10:52:52.998Z,15.88
2019-04-11T10:55:40.522Z,15.96
2019-04-11T10:58:14.516Z,16.01
2019-04-11T11:00:57.754Z,16.08
2019-04-11T11:03:32.066Z,16.12
2019-04-11T11:06:03.123Z,16.19
2019-04-11T11:08:36.131Z,16.30
2019-04-11T11:11:28.361Z,16.36
2019-04-11T11:14:12.269Z,16.42
2019-04-11T11:16:54.757Z,16.44
2019-04-11T11:20:11.857Z,16.49
2019-04-11T11:22:49.019Z,16.50
2019-04-11T11:25:51.581Z,16.50
2019-04-11T11:28:23.786Z,16.52
2019-04-11T11:31:28.004Z,16.53
2019-04-11T11:33:58.777Z,16.55
2019-04-11T11:36:54.815Z,16.53
2019-04-11T11:39:47.254Z,16.53
2019-04-11T11:42:48.423Z,16.55
2019-04-11T11:45:28.361Z,16.58
2019-04-11T11:48:13.652Z,16.58
2019-04-11T11:50:39.114Z,16.62
2019-04-11T11:53:40.576Z,16.62
2019-04-11T11:56:10.634Z,16.67
2019-04-11T11:59:11.299Z,16.67
2019-04-11T12:01:49.313Z,16.73
2019-04-11T12:04:42.239Z,16.71
2019-04-11T12:07:14.599Z,16.72
2019-04-11T12:10:13.253Z,16.74
2019-04-11T12:13:06.668Z,16.78
2019-04-11T12:16:01.621Z,16.84
2019-04-11T12:18:47.233Z,16.89
2019-04-11T12:21:20.499Z,16.89
2019-04-11T12:24:06.409Z,17.03
2019-04-11T12:26:41.636Z,17.06
2019-04-11T12:29:30.622Z,17.08
2019-04-11T12:32:02.128Z,17.16
2019-04-11T12:34:49.416Z,17.20
2019-04-11T12:37:25.301Z,17.27
2019-04-11T12:40:13.862Z,17.31
2019-04-11T12:42:43.433Z,17.44
2019-04-11T12:45:30.943Z,17.41
2019-04-11T12:48:01.698Z,17.41
2019-04-11T12:51:06.062Z,17.38
2019-04-11T12:53:35.629Z,17.48
2019-04-11T12:56:30.117Z,17.55
2019-04-11T12:59:05.550Z,17.61
2019-04-11T13:01:53.028Z,17.61
2019-04-11T13:04:36.832Z,17.63
2019-04-11T13:07:31.743Z,17.59
2019-04-11T13:10:27.589Z,17.70
2019-04-11T13:13:19.205Z,17.70
2019-04-11T13:15:55.812Z,17.81
2019-04-11T13:18:59.763Z,17.88
2019-04-11T13:21:34.277Z,17.82
2019-04-11T13:24:28.760Z,17.99
2019-04-11T13:27:19.178Z,18.02
2019-04-11T13:30:06.669Z,17.91
2019-04-11T13:32:58.391Z,17.99
2019-04-11T13:36:05.397Z,17.96
2019-04-11T13:38:42.584Z,17.82
2019-04-11T13:41:50.851Z,17.85
2019-04-11T13:44:34.834Z,17.88
2019-04-11T13:47:32.094Z,18.02
2019-04-11T13:50:05.301Z,18.02
2019-04-11T13:52:49.119Z,18.06
2019-04-11T13:55:30.364Z,18.06
2019-04-11T13:58:18.912Z,18.01
2019-04-11T14:01:07.508Z,17.93
2019-04-11T14:03:58.962Z,18.02
2019-04-11T14:06:35.367Z,18.00
2019-04-11T14:09:40.193Z,18.10
2019-04-11T14:12:15.630Z,18.01
2019-04-11T14:15:07.047Z,18.10
2019-04-11T14:17:42.515Z,18.04
2019-04-11T14:20:29.801Z,18.02
2019-04-11T14:23:15.081Z,18.03
2019-04-11T14:26:17.504Z,17.93
2019-04-11T14:29:15.263Z,17.92
2019-04-11T14:32:09.875Z,17.81
2019-04-11T14:35:04.993Z,17.87
2019-04-11T14:37:53.588Z,17.87
2019-04-11T14:40:48.500Z,17.88
2019-04-11T14:43:26.201Z,17.83
2019-04-11T14:46:23.653Z,17.78
2019-04-11T14:49:11.167Z,17.77
2019-04-11T14:51:59.953Z,17.85
2019-04-11T14:54:41.326Z,17.91
2019-04-11T14:57:35.172Z,17.94
2019-04-11T15:00:15.499Z,17.98
2019-04-11T15:03:04.005Z,18.03
2019-04-11T15:05:44.605Z,18.09
2019-04-11T15:08:14.923Z,18.13
2019-04-11T15:11:18.593Z,18.20
2019-04-11T15:13:52.600Z,18.20
2019-04-11T15:16:40.058Z,18.26
2019-04-11T15:19:09.846Z,18.24
2019-04-11T15:22:10.793Z,18.18
2019-04-11T15:24:40.456Z,18.17
2019-04-11T15:27:28.155Z,18.17
2019-04-11T15:29:59.229Z,18.08
2019-04-11T15:32:36.511Z,18.08
2019-04-11T15:35:12.196Z,18.09
2019-04-11T15:38:00.775Z,18.05
2019-04-11T15:40:36.884Z,18.03
2019-04-11T15:43:42.257Z,18.02
2019-04-11T15:46:23.445Z,17.91
2019-04-11T15:49:20.494Z,17.91
2019-04-11T15:51:45.235Z,17.93
2019-04-11T15:54:34.855Z,17.91
2019-04-11T15:57:33.085Z,17.88
2019-04-11T16:00:21.800Z,17.85
2019-04-11T16:03:28.485Z,17.81
2019-04-11T16:06:15.844Z,17.78
2019-04-11T16:08:47.395Z,17.73
2019-04-11T16:11:42.220Z,17.70
2019-04-11T16:14:23.032Z,17.64
2019-04-11T16:17:02.291Z,17.59
2019-04-11T16:19:59.936Z,17.54
2019-04-11T16:22:47.628Z,17.49
2019-04-11T16:25:19.283Z,17.47
2019-04-11T16:28:08.214Z,17.45
2019-04-11T16:30:40.417Z,17.41
2019-04-11T16:33:17.043Z,17.35
2019-04-11T16:36:14.656Z,17.29
2019-04-11T16:39:19.950Z,17.26
2019-04-11T16:42:03.754Z,17.23
2019-04-11T16:44:54.897Z,17.22
2019-04-11T16:47:49.291Z,17.17
2019-04-11T16:50:18.716Z,17.13
2019-04-11T16:52:48.163Z,17.12
2019-04-11T16:55:17.525Z,17.08
2019-04-11T16:57:46.925Z,17.03
2019-04-11T17:00:20.227Z,16.98
2019-04-11T17:02:47.514Z,16.95
2019-04-11T17:05:16.950Z,16.92
2019-04-11T17:08:04.163Z,16.91
2019-04-11T17:10:51.384Z,16.86
2019-04-11T17:13:20.852Z,16.83
2019-04-11T17:15:50.236Z,16.81
2019-04-11T17:18:19.615Z,16.77
2019-04-11T17:20:48.973Z,16.76
2019-04-11T17:23:18.335Z,16.74
2019-04-11T17:25:52.351Z,16.64
2019-04-11T17:28:22.649Z,16.61
2019-04-11T17:30:49.878Z,16.56
2019-04-11T17:33:19.237Z,16.57
2019-04-11T17:35:48.776Z,16.51
2019-04-11T17:38:18.137Z,16.47
2019-04-11T17:40:47.483Z,16.44
2019-04-11T17:43:16.931Z,16.41
2019-04-11T17:45:46.356Z,16.33
2019-04-11T17:48:15.884Z,16.26
2019-04-11T17:50:45.312Z,16.20
2019-04-11T17:53:14.728Z,16.18
2019-04-11T17:55:44.093Z,16.15
2019-04-11T17:58:13.560Z,16.05
2019-04-11T18:00:45.154Z,16.02
2019-04-11T18:03:14.539Z,16.00
2019-04-11T18:05:46.632Z,15.99
2019-04-11T18:08:14.968Z,15.96
2019-04-11T18:10:44.407Z,15.81
2019-04-11T18:13:13.849Z,15.85
2019-04-11T18:15:43.223Z,15.81
2019-04-11T18:18:12.605Z,15.75
2019-04-11T18:20:42.115Z,15.66
2019-04-11T18:23:11.712Z,15.67
2019-04-11T18:25:41.070Z,15.59
2019-04-11T18:28:10.515Z,15.58
2019-04-11T18:30:39.969Z,15.59
2019-04-11T18:33:09.456Z,15.63
2019-04-11T18:35:38.828Z,15.53
2019-04-11T18:38:08.436Z,15.49
2019-04-11T18:40:37.977Z,15.54
2019-04-11T18:43:08.909Z,15.52
2019-04-11T18:45:38.299Z,15.13
2019-04-11T18:48:07.823Z,15.21
2019-04-11T18:50:37.205Z,15.22
2019-04-11T18:53:06.566Z,14.81
2019-04-11T18:55:35.979Z,15.05
2019-04-11T18:58:05.461Z,15.18
2019-04-11T19:00:41.060Z,15.33
2019-04-11T19:03:10.882Z,15.25
2019-04-11T19:05:42.754Z,15.35
2019-04-11T19:08:13.120Z,15.33
2019-04-11T19:10:42.970Z,15.21
2019-04-11T19:13:16.693Z,15.07
2019-04-11T19:15:45.719Z,14.86
2019-04-11T19:18:17.043Z,14.75
2019-04-11T19:20:49.875Z,14.99
2019-04-11T19:23:17.758Z,14.92
2019-04-11T19:25:47.219Z,14.93
2019-04-11T19:28:16.660Z,14.84
2019-04-11T19:30:46.308Z,14.82
2019-04-11T19:33:15.673Z,14.70
2019-04-11T19:35:45.050Z,14.74
2019-04-11T19:38:29.123Z,14.57
2019-04-11T19:40:58.582Z,14.56
2019-04-11T19:43:28.109Z,14.61
2019-04-11T19:45:58.733Z,14.74
2019-04-11T19:48:28.330Z,14.83
2019-04-11T19:50:58.969Z,14.72
2019-04-11T19:53:32.761Z,14.90
2019-04-11T19:56:28.341Z,14.52
2019-04-11T19:58:57.737Z,14.41
2019-04-11T20:01:40.751Z,14.18
2019-04-11T20:04:10.127Z,13.95
2019-04-11T20:06:39.709Z,13.88
2019-04-11T20:09:09.432Z,13.95
2019-04-11T20:11:38.818Z,13.96
2019-04-11T20:14:08.369Z,14.04
2019-04-11T20:16:41.982Z,14.02
2019-04-11T20:19:08.896Z,14.03
2019-04-11T20:21:39.004Z,14.19
2019-04-11T20:24:08.417Z,14.30
2019-04-11T20:26:37.806Z,14.20
2019-04-11T20:29:07.238Z,14.22
2019-04-11T20:31:36.627Z,14.25
2019-04-11T20:34:07.227Z,14.29
2019-04-11T20:36:41.066Z,14.07
2019-04-11T20:39:09.069Z,14.06
2019-04-11T20:41:38.481Z,14.01
2019-04-11T20:44:07.970Z,13.97
2019-04-11T20:46:37.618Z,14.14
2019-04-11T20:49:07.008Z,14.25
2019-04-11T20:51:36.450Z,14.08
2019-04-11T20:54:07.244Z,13.92
2019-04-11T20:56:40.128Z,13.76
2019-04-11T20:59:10.362Z,13.73
2019-04-11T21:01:39.228Z,13.85
2019-04-11T21:04:08.680Z,13.97
2019-04-11T21:06:38.030Z,13.83
2019-04-11T21:09:10.408Z,13.81
2019-04-11T21:11:39.815Z,13.79
2019-04-11T21:14:09.247Z,13.66
2019-04-11T21:16:38.650Z,13.72
2019-04-11T21:19:08.008Z,13.72
2019-04-11T21:21:37.409Z,13.66
2019-04-11T21:24:06.791Z,13.63
2019-04-11T21:26:36.160Z,13.58
2019-04-11T21:29:05.902Z,13.73
2019-04-11T21:31:35.261Z,13.68
2019-04-11T21:34:04.712Z,13.69
2019-04-11T21:36:34.082Z,13.60
2019-04-11T21:39:04.514Z,13.69
2019-04-11T21:41:36.045Z,13.57
2019-04-11T21:44:06.084Z,13.80
2019-04-11T21:46:38.124Z,13.39
2019-04-11T21:49:07.427Z,13.09
2019-04-11T21:51:41.538Z,13.03
2019-04-11T21:54:07.881Z,13.00
2019-04-11T21:56:37.244Z,12.84
2019-04-11T21:59:06.637Z,12.77
2019-04-11T22:01:37.651Z,13.06
2019-04-11T22:04:07.120Z,12.91
2019-04-11T22:06:36.522Z,12.77
2019-04-11T22:09:08.106Z,12.66
2019-04-11T22:11:38.393Z,12.62
2019-04-11T22:14:10.986Z,12.74
2019-04-11T22:16:39.462Z,13.12
2019-04-11T22:19:09.031Z,13.35
2019-04-11T22:21:38.396Z,13.12
2019-04-11T22:24:07.856Z,13.39
2019-04-11T22:26:37.299Z,13.48
2019-04-11T22:29:06.773Z,13.67
2019-04-11T22:31:36.195Z,13.67
2019-04-11T22:34:17.612Z,13.59
2019-04-11T22:36:46.981Z,13.65
2019-04-11T22:39:16.360Z,13.67
2019-04-11T22:41:45.726Z,13.67
2019-04-11T22:44:15.096Z,13.56
2019-04-11T22:46:44.454Z,13.51
2019-04-11T22:49:13.830Z,13.57
2019-04-11T22:51:43.671Z,13.71
2019-04-11T22:54:13.800Z,13.58
2019-04-11T22:56:43.221Z,13.58
2019-04-11T22:59:14.009Z,13.58
2019-04-11T23:01:46.503Z,13.54
2019-04-11T23:04:17.032Z,13.25
2019-04-11T23:06:47.247Z,13.56
2019-04-11T23:09:19.551Z,13.57
2019-04-11T23:11:48.247Z,13.66
2019-04-11T23:14:17.611Z,13.45
2019-04-11T23:16:46.971Z,13.57
2019-04-11T23:19:16.345Z,13.44
2019-04-11T23:21:45.711Z,13.36
2019-04-11T23:24:15.084Z,13.38
2019-04-11T23:26:44.456Z,13.21
2019-04-11T23:29:15.952Z,13.48
2019-04-11T23:31:44.873Z,13.31
2019-04-11T23:34:14.223Z,13.40
2019-04-11T23:36:43.580Z,13.31
2019-04-11T23:39:12.934Z,13.35
2019-04-11T23:41:42.333Z,13.20
2019-04-11T23:44:11.689Z,13.21
2019-04-11T23:46:41.056Z,13.26
2019-04-11T23:49:10.426Z,13.43
2019-04-11T23:51:39.799Z,13.33
2019-04-11T23:54:09.223Z,13.31
2019-04-11T23:56:38.567Z,13.27
2019-04-11T23:59:08.022Z,13.28
